Time;durP1;ratioP1;P1;durP2;ratioP2;P2;SDS_P1;SDS_P2;PMS_P1;PMS_P2;Temp;Humidity;BMP_temperature;BMP_pressure;BME280_temperature;BME280_humidity;BME280_pressure;Samples;Min_cycle;Max_cycle;Signal;HPM_P1;HPM_P2
2021/12/19 00:00:22;;;;;;;12.07;2.10;;;;;;;;;;4996690;28;20030;-33
2021/12/19 00:10:47;;;;;;;11.43;2.33;;;;;;;;;;4996563;28;20044;-33
2021/12/19 00:13:14;;;;;;;8.48;2.15;;;;;;;;;;4980115;28;20442;-32
2021/12/19 00:15:40;;;;;;;12.50;2.10;;;;;;;;;;4996675;28;20038;-33
2021/12/19 00:18:06;;;;;;;7.43;1.63;;;;;;;;;;4996672;28;20105;-32
2021/12/19 00:20:32;;;;;;;6.80;1.65;;;;;;;;;;4996882;28;20033;-32
2021/12/19 00:22:59;;;;;;;7.43;1.85;;;;;;;;;;4996186;28;20110;-33
2021/12/19 00:25:25;;;;;;;19.40;4.72;;;;;;;;;;4996165;28;20462;-33
2021/12/19 00:27:51;;;;;;;8.02;1.75;;;;;;;;;;4979917;28;20050;-33
2021/12/19 00:30:17;;;;;;;5.28;1.70;;;;;;;;;;4996122;28;20118;-35
2021/12/19 00:32:43;;;;;;;5.88;1.85;;;;;;;;;;4996303;28;20493;-32
2021/12/19 00:35:10;;;;;;;4.85;2.05;;;;;;;;;;4996031;28;20030;-33
2021/12/19 00:37:36;;;;;;;8.40;2.53;;;;;;;;;;4996509;28;20026;-32
2021/12/19 00:40:03;;;;;;;11.65;1.67;;;;;;;;;;4995900;28;20194;-32
2021/12/19 00:42:31;;;;;;;5.85;1.80;;;;;;;;;;4995844;28;20026;-32
2021/12/19 00:45:01;;;;;;;9.88;2.47;;;;;;;;;;4996025;28;20450;-33
2021/12/19 00:47:27;;;;;;;5.70;2.10;;;;;;;;;;4996167;28;20018;-32
2021/12/19 00:49:55;;;;;;;9.27;1.98;;;;;;;;;;4996063;28;20101;-32
2021/12/19 00:52:21;;;;;;;11.23;3.35;;;;;;;;;;4995636;28;20030;-31
2021/12/19 00:54:47;;;;;;;8.93;1.67;;;;;;;;;;4994969;28;20045;-31
2021/12/19 00:57:14;;;;;;;12.02;2.13;;;;;;;;;;4995916;28;20358;-31
2021/12/19 00:59:40;;;;;;;6.32;1.77;;;;;;;;;;4995892;28;20057;-31
2021/12/19 01:02:06;;;;;;;6.90;2.63;;;;;;;;;;4995515;28;20462;-32
2021/12/19 01:04:32;;;;;;;12.57;2.20;;;;;;;;;;4995223;28;20050;-32
2021/12/19 01:07:01;;;;;;;3.72;1.73;;;;;;;;;;4995751;28;20026;-32
2021/12/19 01:09:27;;;;;;;7.68;1.90;;;;;;;;;;4995735;28;20366;-31
2021/12/19 01:11:54;;;;;;;5.05;1.90;;;;;;;;;;4978271;28;20026;-32
2021/12/19 01:14:20;;;;;;;11.18;2.33;;;;;;;;;;4995963;28;20345;-33
2021/12/19 01:16:46;;;;;;;7.43;1.75;;;;;;;;;;4995339;28;20034;-32
2021/12/19 01:19:13;;;;;;;11.75;1.92;;;;;;;;;;4995621;28;20365;-34
2021/12/19 01:21:39;;;;;;;7.55;2.97;;;;;;;;;;4995828;28;20042;-33
2021/12/19 01:24:05;;;;;;;5.00;1.10;;;;;;;;;;4995242;28;20037;-33
2021/12/19 01:26:31;;;;;;;10.40;2.40;;;;;;;;;;4995512;28;20038;-33
2021/12/19 01:28:58;;;;;;;7.65;1.65;;;;;;;;;;4995236;28;20029;-32
2021/12/19 01:31:24;;;;;;;7.88;2.35;;;;;;;;;;4995241;28;20434;-32
2021/12/19 01:33:50;;;;;;;2.33;1.15;;;;;;;;;;4995425;28;20102;-32
2021/12/19 01:36:18;;;;;;;8.60;1.80;;;;;;;;;;4995449;28;20026;-31
2021/12/19 01:38:45;;;;;;;6.90;1.60;;;;;;;;;;4995405;28;20113;-31
2021/12/19 01:41:11;;;;;;;7.38;1.67;;;;;;;;;;4995662;28;20496;-32
2021/12/19 01:43:37;;;;;;;4.35;1.67;;;;;;;;;;4994920;28;20413;-31
2021/12/19 01:46:04;;;;;;;5.00;1.75;;;;;;;;;;4995117;28;20422;-32
2021/12/19 01:48:30;;;;;;;7.93;2.33;;;;;;;;;;4995119;28;20366;-33
2021/12/19 01:50:56;;;;;;;6.72;1.60;;;;;;;;;;4995300;28;20022;-31
2021/12/19 01:53:23;;;;;;;5.60;1.75;;;;;;;;;;4994993;28;20114;-34
2021/12/19 01:55:49;;;;;;;10.73;1.45;;;;;;;;;;4994965;28;20034;-32
2021/12/19 01:58:16;;;;;;;8.55;2.70;;;;;;;;;;4994980;28;20031;-32
2021/12/19 02:00:48;;;;;;;8.25;1.95;;;;;;;;;;4994960;28;20049;-32
2021/12/19 02:03:15;;;;;;;6.72;1.80;;;;;;;;;;4994710;28;20065;-31
2021/12/19 02:05:41;;;;;;;4.93;1.85;;;;;;;;;;4994642;28;20058;-31
2021/12/19 02:08:08;;;;;;;3.35;1.40;;;;;;;;;;4981731;28;20026;-32
2021/12/19 02:10:35;;;;;;;3.50;1.60;;;;;;;;;;4998765;28;20041;-32
2021/12/19 02:13:02;;;;;;;7.68;1.98;;;;;;;;;;4998655;28;20050;-33
2021/12/19 02:15:29;;;;;;;4.65;1.77;;;;;;;;;;4999183;28;20027;-35
2021/12/19 02:17:57;;;;;;;4.53;1.40;;;;;;;;;;4998603;28;20050;-31
2021/12/19 02:20:25;;;;;;;9.00;2.10;;;;;;;;;;4998824;28;20095;-31
2021/12/19 02:22:51;;;;;;;5.90;1.70;;;;;;;;;;4998449;28;20102;-32
2021/12/19 02:25:17;;;;;;;9.95;1.88;;;;;;;;;;4998379;28;20041;-32
2021/12/19 02:27:44;;;;;;;4.95;1.55;;;;;;;;;;4998673;28;20438;-34
2021/12/19 02:30:11;;;;;;;6.10;2.05;;;;;;;;;;4998364;28;20042;-32
2021/12/19 02:32:40;;;;;;;3.53;1.85;;;;;;;;;;4998416;28;20512;-32
2021/12/19 02:35:09;;;;;;;5.63;2.15;;;;;;;;;;4998227;28;20561;-33
2021/12/19 02:40:28;;;;;;;4.70;2.08;;;;;;;;;;4998213;28;20040;-32
2021/12/19 02:48:11;;;;;;;3.55;1.50;;;;;;;;;;4998643;28;20054;-33
2021/12/19 02:50:37;;;;;;;5.68;1.75;;;;;;;;;;4998243;28;20026;-31
2021/12/19 02:53:03;;;;;;;4.20;1.45;;;;;;;;;;4998161;28;20096;-33
2021/12/19 02:55:30;;;;;;;4.63;1.80;;;;;;;;;;4997967;28;20034;-32
2021/12/19 02:57:56;;;;;;;4.40;1.63;;;;;;;;;;4998408;28;20030;-31
2021/12/19 03:00:24;;;;;;;8.40;1.45;;;;;;;;;;4997828;28;20407;-32
2021/12/19 03:02:50;;;;;;;11.82;3.50;;;;;;;;;;4998011;28;20096;-31
2021/12/19 03:05:17;;;;;;;10.35;1.60;;;;;;;;;;4997538;28;20077;-31
2021/12/19 03:07:44;;;;;;;2.97;1.65;;;;;;;;;;4997997;28;20022;-31
2021/12/19 03:18:45;;;;;;;2.58;1.65;;;;;;;;;;4996916;28;20038;-31
2021/12/19 03:21:15;;;;;;;5.95;1.50;;;;;;;;;;4997520;28;20050;-31
2021/12/19 03:23:41;;;;;;;6.72;1.80;;;;;;;;;;4997822;28;20409;-32
2021/12/19 03:26:08;;;;;;;3.35;1.45;;;;;;;;;;4997623;28;20042;-32
2021/12/19 03:28:34;;;;;;;5.28;1.63;;;;;;;;;;4997635;28;20598;-36
2021/12/19 03:31:02;;;;;;;7.22;1.60;;;;;;;;;;4997319;28;20053;-32
2021/12/19 03:33:29;;;;;;;3.92;2.17;;;;;;;;;;4997180;28;20049;-33
2021/12/19 03:35:55;;;;;;;3.47;1.85;;;;;;;;;;4997191;28;20057;-32
2021/12/19 03:38:21;;;;;;;2.63;1.42;;;;;;;;;;4997388;28;20397;-35
2021/12/19 03:41:10;;;;;;;4.95;1.70;;;;;;;;;;4997351;28;20038;-31
2021/12/19 03:43:36;;;;;;;12.35;2.25;;;;;;;;;;4979861;28;20030;-31
2021/12/19 03:46:02;;;;;;;6.38;1.63;;;;;;;;;;4980299;28;20362;-32
2021/12/19 03:48:29;;;;;;;8.05;1.30;;;;;;;;;;4996947;28;20034;-31
2021/12/19 03:50:55;;;;;;;4.97;1.55;;;;;;;;;;4979767;28;20109;-34
2021/12/19 03:53:22;;;;;;;4.55;1.42;;;;;;;;;;4996824;28;20081;-34
2021/12/19 03:55:50;;;;;;;5.82;1.65;;;;;;;;;;4997083;28;20481;-32
2021/12/19 03:58:17;;;;;;;5.85;1.60;;;;;;;;;;4996785;28;20029;-32
2021/12/19 04:00:44;;;;;;;5.72;1.40;;;;;;;;;;4997016;28;20397;-30
2021/12/19 04:03:17;;;;;;;6.53;1.60;;;;;;;;;;4996565;28;20031;-31
2021/12/19 04:05:45;;;;;;;5.43;3.05;;;;;;;;;;4996405;28;20054;-33
2021/12/19 04:08:12;;;;;;;3.08;1.45;;;;;;;;;;4997108;28;20030;-36
2021/12/19 04:10:38;;;;;;;3.80;1.58;;;;;;;;;;4996549;28;20027;-32
2021/12/19 04:13:05;;;;;;;2.30;1.10;;;;;;;;;;4996383;28;20030;-31
2021/12/19 04:15:31;;;;;;;5.90;1.15;;;;;;;;;;4996450;28;20026;-32
2021/12/19 04:17:57;;;;;;;9.45;1.98;;;;;;;;;;4996377;28;20041;-32
2021/12/19 04:20:23;;;;;;;3.22;0.93;;;;;;;;;;4996349;28;20379;-33
2021/12/19 04:22:50;;;;;;;2.97;1.20;;;;;;;;;;4979095;28;20483;-34
2021/12/19 04:25:17;;;;;;;3.40;1.42;;;;;;;;;;4996133;28;20030;-32
2021/12/19 04:27:44;;;;;;;2.67;1.38;;;;;;;;;;4996234;28;20054;-32
2021/12/19 04:30:11;;;;;;;3.10;1.33;;;;;;;;;;4995223;28;20462;-31
2021/12/19 04:32:42;;;;;;;8.75;1.50;;;;;;;;;;4996606;28;20026;-31
2021/12/19 04:35:09;;;;;;;;;;;;;;;;;;4996787;28;20034;-31
2021/12/19 04:38:30;;;;;;;5.15;1.52;;;;;;;;;;4995973;28;20001;-31
2021/12/19 05:00:00;;;;;;;3.85;1.92;;;;;;;;;;4996294;28;20441;-37
2021/12/19 05:02:42;;;;;;;3.38;1.23;;;;;;;;;;4995850;28;20030;-34
2021/12/19 05:05:29;;;;;;;9.43;1.98;;;;;;;;;;4995371;28;20053;-33
2021/12/19 05:16:10;;;;;;;2.58;2.13;;;;;;;;;;4995736;28;20045;-33
2021/12/19 05:18:39;;;;;;;3.70;1.27;;;;;;;;;;4995673;28;20084;-35
2021/12/19 05:21:15;;;;;;;5.35;1.50;;;;;;;;;;4995361;28;20037;-31
2021/12/19 05:26:10;;;;;;;7.05;1.35;;;;;;;;;;4995856;28;20041;-32
2021/12/19 05:28:37;;;;;;;3.58;1.50;;;;;;;;;;4995550;28;20026;-32
2021/12/19 05:31:03;;;;;;;7.10;1.55;;;;;;;;;;4995259;28;20026;-31
2021/12/19 05:33:29;;;;;;;2.47;1.45;;;;;;;;;;4995155;28;20018;-32
2021/12/19 05:44:07;;;;;;;7.22;1.45;;;;;;;;;;4995486;28;20026;-36
2021/12/19 05:46:53;;;;;;;7.57;2.78;;;;;;;;;;4999255;28;20045;-32
2021/12/19 05:49:20;;;;;;;1.83;1.10;;;;;;;;;;4999457;28;20022;-32
2021/12/19 05:51:46;;;;;;;1.75;1.27;;;;;;;;;;4999058;28;20038;-31
2021/12/19 05:54:13;;;;;;;3.47;1.52;;;;;;;;;;4999395;28;20037;-32
2021/12/19 05:56:39;;;;;;;6.00;1.60;;;;;;;;;;4998997;28;20057;-32
2021/12/19 05:59:08;;;;;;;3.38;1.35;;;;;;;;;;4999267;28;20030;-32
2021/12/19 06:01:35;;;;;;;6.40;1.20;;;;;;;;;;4999292;28;20454;-32
2021/12/19 06:04:03;;;;;;;2.78;1.35;;;;;;;;;;4998753;28;20077;-31
2021/12/19 06:06:29;;;;;;;8.00;1.58;;;;;;;;;;4999445;28;20101;-32
2021/12/19 06:08:55;;;;;;;1.13;0.90;;;;;;;;;;4998830;28;20104;-32
2021/12/19 06:11:22;;;;;;;2.60;1.02;;;;;;;;;;4998855;28;20080;-31
2021/12/19 06:13:48;;;;;;;3.45;2.47;;;;;;;;;;4998734;28;20085;-31
2021/12/19 06:16:14;;;;;;;2.97;1.30;;;;;;;;;;4998615;28;20088;-31
2021/12/19 06:18:40;;;;;;;5.10;1.48;;;;;;;;;;4998693;28;20030;-35
2021/12/19 06:21:07;;;;;;;4.75;1.48;;;;;;;;;;4998612;28;20030;-33
2021/12/19 06:23:33;;;;;;;3.83;1.67;;;;;;;;;;4998461;28;20026;-31
2021/12/19 06:25:59;;;;;;;3.08;1.27;;;;;;;;;;4998428;28;20026;-32
2021/12/19 06:28:26;;;;;;;3.17;1.40;;;;;;;;;;4998481;28;20476;-32
2021/12/19 06:30:52;;;;;;;3.00;1.23;;;;;;;;;;4998403;28;20026;-33
2021/12/19 06:33:19;;;;;;;4.13;1.25;;;;;;;;;;4998280;28;20026;-34
2021/12/19 06:35:45;;;;;;;4.47;1.40;;;;;;;;;;4998572;28;20038;-36
2021/12/19 06:38:13;;;;;;;2.95;0.90;;;;;;;;;;4998300;28;20026;-32
2021/12/19 06:40:39;;;;;;;4.10;1.20;;;;;;;;;;4998493;28;20042;-32
2021/12/19 06:43:07;;;;;;;4.20;1.30;;;;;;;;;;4998049;28;20037;-31
2021/12/19 06:45:33;;;;;;;3.90;1.67;;;;;;;;;;4998145;28;20022;-33
2021/12/19 06:47:59;;;;;;;2.72;1.10;;;;;;;;;;4998125;28;20457;-31
2021/12/19 06:50:26;;;;;;;4.95;1.80;;;;;;;;;;4998331;28;20031;-33
2021/12/19 06:52:52;;;;;;;6.22;1.50;;;;;;;;;;4996896;28;20023;-31
2021/12/19 06:55:19;;;;;;;4.32;1.00;;;;;;;;;;4980842;28;20428;-31
2021/12/19 06:57:45;;;;;;;3.33;1.15;;;;;;;;;;4997957;28;20420;-31
2021/12/19 07:00:13;;;;;;;2.17;1.98;;;;;;;;;;4997898;28;20044;-31
2021/12/19 07:02:40;;;;;;;4.93;1.42;;;;;;;;;;4998123;28;20323;-31
2021/12/19 07:05:06;;;;;;;4.15;2.20;;;;;;;;;;4997511;28;20038;-32
2021/12/19 07:07:33;;;;;;;3.42;1.40;;;;;;;;;;4998063;28;20102;-31
2021/12/19 07:09:59;;;;;;;2.03;1.05;;;;;;;;;;4997990;28;20113;-32
2021/12/19 07:12:26;;;;;;;4.75;0.95;;;;;;;;;;4997865;28;20022;-31
2021/12/19 07:14:57;;;;;;;2.85;1.00;;;;;;;;;;4997617;28;20030;-33
2021/12/19 07:17:23;;;;;;;1.70;1.10;;;;;;;;;;4997881;28;20031;-34
2021/12/19 07:19:49;;;;;;;3.58;2.35;;;;;;;;;;4980396;28;20470;-32
2021/12/19 07:22:16;;;;;;;3.08;0.85;;;;;;;;;;4997439;28;20101;-31
2021/12/19 07:24:42;;;;;;;1.88;0.98;;;;;;;;;;4980704;28;20038;-31
2021/12/19 07:27:08;;;;;;;5.55;1.27;;;;;;;;;;4997276;28;20030;-33
2021/12/19 07:29:35;;;;;;;2.67;0.98;;;;;;;;;;4980198;28;20042;-30
2021/12/19 07:32:01;;;;;;;2.20;1.02;;;;;;;;;;4997278;28;20122;-31
2021/12/19 07:34:32;;;;;;;1.75;0.80;;;;;;;;;;4997311;28;20041;-33
2021/12/19 07:36:58;;;;;;;4.57;1.10;;;;;;;;;;4997545;28;20049;-31
2021/12/19 07:42:11;;;;;;;3.13;1.38;;;;;;;;;;4997097;28;20041;-31
2021/12/19 07:44:38;;;;;;;1.83;0.95;;;;;;;;;;4996979;28;20521;-31
2021/12/19 07:47:07;;;;;;;3.03;1.67;;;;;;;;;;4997234;28;20088;-31
2021/12/19 07:49:33;;;;;;;3.00;1.25;;;;;;;;;;4997018;28;20453;-31
2021/12/19 07:52:00;;;;;;;4.18;1.20;;;;;;;;;;4997126;28;20354;-32
2021/12/19 07:54:26;;;;;;;3.47;1.23;;;;;;;;;;4996848;28;20062;-31
2021/12/19 07:56:52;;;;;;;1.33;0.90;;;;;;;;;;4997076;28;20445;-33
2021/12/19 07:59:19;;;;;;;2.55;1.13;;;;;;;;;;4997303;28;20038;-31
2021/12/19 08:01:45;;;;;;;1.15;0.80;;;;;;;;;;4996928;28;20045;-31
2021/12/19 08:04:11;;;;;;;2.92;2.30;;;;;;;;;;4996607;28;20100;-32
2021/12/19 08:06:38;;;;;;;1.38;0.75;;;;;;;;;;4996610;28;20022;-32
2021/12/19 08:09:09;;;;;;;4.43;1.20;;;;;;;;;;4996842;28;20041;-32
2021/12/19 08:11:40;;;;;;;3.65;1.15;;;;;;;;;;4996838;28;20380;-31
2021/12/19 08:14:16;;;;;;;3.60;1.45;;;;;;;;;;4996824;28;20022;-31
2021/12/19 08:16:43;;;;;;;1.55;0.85;;;;;;;;;;4996766;28;20362;-31
2021/12/19 08:19:09;;;;;;;1.63;0.85;;;;;;;;;;4996391;28;20026;-32
2021/12/19 08:21:36;;;;;;;3.92;0.85;;;;;;;;;;4979215;28;20465;-33
2021/12/19 08:24:04;;;;;;;3.75;1.02;;;;;;;;;;4996185;28;20418;-30
2021/12/19 08:26:30;;;;;;;3.45;1.30;;;;;;;;;;4996228;28;20038;-33
2021/12/19 08:28:57;;;;;;;1.17;0.75;;;;;;;;;;4996187;28;20034;-33
2021/12/19 08:31:23;;;;;;;2.35;0.93;;;;;;;;;;4996229;28;20097;-32
2021/12/19 08:33:50;;;;;;;4.95;0.98;;;;;;;;;;4996093;28;20026;-32
2021/12/19 08:36:16;;;;;;;3.13;0.90;;;;;;;;;;4996075;28;20030;-33
2021/12/19 08:38:43;;;;;;;1.25;0.75;;;;;;;;;;4996338;28;20401;-32
2021/12/19 08:41:09;;;;;;;3.63;1.00;;;;;;;;;;4996542;28;20026;-33
2021/12/19 08:43:35;;;;;;;2.70;1.10;;;;;;;;;;4995923;28;20476;-33
2021/12/19 08:46:02;;;;;;;1.70;1.10;;;;;;;;;;4995896;28;20042;-31
2021/12/19 08:48:28;;;;;;;2.05;1.00;;;;;;;;;;4995900;28;20038;-32
2021/12/19 08:50:54;;;;;;;1.75;0.93;;;;;;;;;;4996105;28;20180;-32
2021/12/19 08:53:20;;;;;;;3.65;1.00;;;;;;;;;;4995815;28;20034;-31
2021/12/19 08:55:47;;;;;;;1.80;0.88;;;;;;;;;;4996273;28;20070;-31
2021/12/19 08:58:13;;;;;;;1.95;1.00;;;;;;;;;;4996005;28;20026;-32
2021/12/19 09:00:39;;;;;;;3.72;1.05;;;;;;;;;;4978583;28;20042;-32
2021/12/19 09:03:06;;;;;;;2.65;1.08;;;;;;;;;;4995887;28;20116;-32
2021/12/19 09:05:32;;;;;;;0.98;0.70;;;;;;;;;;4996306;28;20049;-31
2021/12/19 09:07:59;;;;;;;3.40;2.35;;;;;;;;;;4995553;28;20022;-32
2021/12/19 09:10:26;;;;;;;1.20;0.65;;;;;;;;;;4978394;28;20405;-33
2021/12/19 09:12:52;;;;;;;1.30;0.80;;;;;;;;;;4995685;28;20030;-34
2021/12/19 09:15:19;;;;;;;2.15;0.77;;;;;;;;;;4995602;28;20031;-32
2021/12/19 09:17:45;;;;;;;1.77;0.80;;;;;;;;;;4995009;28;20055;-32
2021/12/19 09:20:12;;;;;;;2.47;1.00;;;;;;;;;;4995627;28;20030;-32
2021/12/19 09:22:39;;;;;;;1.52;1.00;;;;;;;;;;4995282;28;20026;-33
2021/12/19 09:25:05;;;;;;;3.30;0.77;;;;;;;;;;4995246;28;20038;-32
2021/12/19 09:27:32;;;;;;;1.67;1.00;;;;;;;;;;4995624;28;20449;-34
2021/12/19 09:29:58;;;;;;;2.38;1.38;;;;;;;;;;4995181;28;20049;-33
2021/12/19 09:32:24;;;;;;;6.80;1.20;;;;;;;;;;4995218;28;20113;-33
2021/12/19 09:34:50;;;;;;;1.95;1.02;;;;;;;;;;4995254;28;20347;-31
2021/12/19 09:37:17;;;;;;;1.67;0.70;;;;;;;;;;4995220;28;20034;-33
2021/12/19 09:39:43;;;;;;;3.08;1.38;;;;;;;;;;4995936;28;20335;-32
2021/12/19 09:42:10;;;;;;;3.00;1.02;;;;;;;;;;4995061;28;20037;-32
2021/12/19 09:44:40;;;;;;;1.70;1.00;;;;;;;;;;4995041;28;20030;-32
2021/12/19 09:47:07;;;;;;;2.47;1.17;;;;;;;;;;4995366;28;20022;-32
2021/12/19 09:49:35;;;;;;;2.00;1.00;;;;;;;;;;4994985;28;20466;-31
2021/12/19 09:52:05;;;;;;;2.63;0.85;;;;;;;;;;4995010;28;20081;-32
2021/12/19 09:54:31;;;;;;;1.98;1.27;;;;;;;;;;4994999;28;20105;-33
2021/12/19 09:56:58;;;;;;;1.73;1.27;;;;;;;;;;4995273;28;20030;-31
2021/12/19 09:59:24;;;;;;;3.95;1.13;;;;;;;;;;4995288;28;20466;-32
2021/12/19 10:01:52;;;;;;;0.95;0.80;;;;;;;;;;4995201;28;20098;-32
2021/12/19 10:04:37;;;;;;;1.13;0.98;;;;;;;;;;4994681;28;20050;-31
2021/12/19 10:07:03;;;;;;;1.70;0.70;;;;;;;;;;4994901;28;20430;-33
2021/12/19 10:09:29;;;;;;;2.03;1.25;;;;;;;;;;4995207;28;20022;-32
2021/12/19 10:12:10;;;;;;;1.13;0.70;;;;;;;;;;4995052;28;20030;-32
2021/12/19 10:14:38;;;;;;;3.07;0.60;;;;;;;;;;4994883;28;20058;-33
2021/12/19 10:17:15;;;;;;;2.45;1.00;;;;;;;;;;4994825;28;20065;-31
2021/12/19 10:19:49;;;;;;;2.10;0.90;;;;;;;;;;4995161;28;20347;-32
2021/12/19 10:22:25;;;;;;;1.45;1.17;;;;;;;;;;4994961;28;20104;-31
2021/12/19 10:24:52;;;;;;;2.83;0.70;;;;;;;;;;4977549;28;20099;-32
2021/12/19 10:27:35;;;;;;;2.83;0.90;;;;;;;;;;4995548;28;20065;-32
2021/12/19 10:30:01;;;;;;;1.15;0.82;;;;;;;;;;4998757;28;20053;-33
2021/12/19 10:32:27;;;;;;;2.17;0.80;;;;;;;;;;4998366;28;20037;-33
2021/12/19 10:35:12;;;;;;;2.33;0.60;;;;;;;;;;4998681;28;20026;-32
2021/12/19 10:37:39;;;;;;;1.30;0.77;;;;;;;;;;4998282;28;20077;-32
2021/12/19 10:40:06;;;;;;;1.52;0.90;;;;;;;;;;4998236;28;20038;-32
2021/12/19 10:42:43;;;;;;;1.45;0.88;;;;;;;;;;4998111;28;20038;-32
2021/12/19 10:48:08;;;;;;;1.23;0.60;;;;;;;;;;4998424;28;20048;-31
2021/12/19 10:50:41;;;;;;;1.00;0.70;;;;;;;;;;4998360;28;20057;-33
2021/12/19 10:53:08;;;;;;;3.22;0.85;;;;;;;;;;4980821;28;20476;-33
2021/12/19 10:55:34;;;;;;;3.28;0.98;;;;;;;;;;4997952;28;20038;-33
2021/12/19 10:58:00;;;;;;;1.38;0.70;;;;;;;;;;4998253;28;20057;-32
2021/12/19 11:00:28;;;;;;;3.58;0.70;;;;;;;;;;4997867;28;20038;-31
2021/12/19 11:02:54;;;;;;;0.90;0.57;;;;;;;;;;4997709;28;20030;-32
2021/12/19 11:05:37;;;;;;;1.90;0.82;;;;;;;;;;4997409;28;20050;-32
2021/12/19 11:08:08;;;;;;;2.78;1.15;;;;;;;;;;4997749;28;20052;-32
2021/12/19 11:10:36;;;;;;;3.08;0.88;;;;;;;;;;4997654;28;20454;-32
2021/12/19 11:13:07;;;;;;;1.52;0.73;;;;;;;;;;4997851;28;20076;-32
2021/12/19 11:15:34;;;;;;;1.23;0.70;;;;;;;;;;4998484;28;20120;-33
2021/12/19 11:18:00;;;;;;;0.90;0.60;;;;;;;;;;4997854;28;20026;-34
2021/12/19 11:20:27;;;;;;;2.75;0.80;;;;;;;;;;4998035;28;20041;-33
2021/12/19 11:22:54;;;;;;;1.23;0.73;;;;;;;;;;4980330;28;20049;-32
2021/12/19 11:25:21;;;;;;;2.35;1.85;;;;;;;;;;4997617;28;20054;-31
2021/12/19 11:27:48;;;;;;;1.63;0.90;;;;;;;;;;4997418;28;20331;-31
2021/12/19 11:30:18;;;;;;;2.38;0.75;;;;;;;;;;4997374;28;20377;-31
2021/12/19 11:32:59;;;;;;;2.13;1.30;;;;;;;;;;4997222;28;20060;-32
2021/12/19 11:35:27;;;;;;;1.88;0.98;;;;;;;;;;4997232;28;20034;-32
2021/12/19 11:37:57;;;;;;;0.90;0.63;;;;;;;;;;4997685;28;20030;-34
2021/12/19 11:40:23;;;;;;;3.05;1.40;;;;;;;;;;4996898;28;20036;-31
2021/12/19 11:42:50;;;;;;;2.17;0.82;;;;;;;;;;4997057;28;20037;-32
2021/12/19 11:46:09;;;;;;;1.05;0.95;;;;;;;;;;4996961;28;20034;-32
2021/12/19 11:48:29;;;;;;;1.80;0.68;;;;;;;;;;4986486;28;20429;-32
2021/12/19 11:50:56;;;;;;;0.75;0.68;;;;;;;;;;4997307;28;20026;-31
2021/12/19 11:53:43;;;;;;;1.67;0.80;;;;;;;;;;4996805;28;20118;-33
2021/12/19 11:56:17;;;;;;;1.33;0.60;;;;;;;;;;4997183;28;20101;-32
2021/12/19 11:58:50;;;;;;;1.77;0.88;;;;;;;;;;4997182;28;20377;-31
2021/12/19 12:01:30;;;;;;;2.33;0.70;;;;;;;;;;4996718;28;20105;-34
2021/12/19 12:03:59;;;;;;;2.10;1.20;;;;;;;;;;4996724;28;20050;-31
2021/12/19 12:06:28;;;;;;;1.58;0.85;;;;;;;;;;4996704;28;20041;-34
2021/12/19 12:09:04;;;;;;;1.98;1.00;;;;;;;;;;4996584;28;20089;-32
2021/12/19 12:11:31;;;;;;;0.73;0.60;;;;;;;;;;4996903;28;20097;-33
2021/12/19 12:14:21;;;;;;;1.67;0.68;;;;;;;;;;4996459;28;20168;-32
2021/12/19 12:16:53;;;;;;;1.13;0.45;;;;;;;;;;4996776;28;20030;-33
2021/12/19 12:19:37;;;;;;;1.17;0.70;;;;;;;;;;4996475;28;20034;-33
2021/12/19 12:22:47;;;;;;;1.02;0.50;;;;;;;;;;4996643;28;20366;-32
2021/12/19 12:25:16;;;;;;;3.10;0.70;;;;;;;;;;4996310;28;20038;-31
2021/12/19 12:27:44;;;;;;;1.00;0.73;;;;;;;;;;4996262;28;20370;-34
2021/12/19 12:30:15;;;;;;;1.13;0.60;;;;;;;;;;4996536;28;20366;-32
2021/12/19 12:32:42;;;;;;;1.25;0.70;;;;;;;;;;4978996;28;20033;-32
2021/12/19 12:35:11;;;;;;;0.50;0.50;;;;;;;;;;4996084;28;20042;-32
2021/12/19 12:37:37;;;;;;;2.85;0.70;;;;;;;;;;4996403;28;20022;-33
2021/12/19 12:40:15;;;;;;;1.60;0.82;;;;;;;;;;4996084;28;20370;-32
2021/12/19 12:42:59;;;;;;;2.80;1.60;;;;;;;;;;4996229;28;20022;-31
2021/12/19 12:45:26;;;;;;;2.42;0.80;;;;;;;;;;4996206;28;20058;-31
2021/12/19 12:47:52;;;;;;;0.80;0.50;;;;;;;;;;4995924;28;20018;-34
2021/12/19 12:50:18;;;;;;;1.58;0.75;;;;;;;;;;4996056;28;20022;-31
2021/12/19 12:52:45;;;;;;;1.38;0.63;;;;;;;;;;4995479;28;20053;-33
2021/12/19 12:55:14;;;;;;;1.55;0.50;;;;;;;;;;4978670;28;20121;-31
2021/12/19 12:57:41;;;;;;;1.67;1.25;;;;;;;;;;4995768;28;20034;-32
2021/12/19 13:00:18;;;;;;;0.70;0.70;;;;;;;;;;4995653;28;20061;-31
2021/12/19 13:02:45;;;;;;;4.88;1.02;;;;;;;;;;4995900;28;20109;-33
2021/12/19 13:05:13;;;;;;;2.40;0.80;;;;;;;;;;4999062;28;20050;-32
2021/12/19 13:07:39;;;;;;;2.08;0.70;;;;;;;;;;4995615;28;20030;-32
2021/12/19 13:10:06;;;;;;;0.60;0.60;;;;;;;;;;4995805;28;20026;-32
2021/12/19 13:12:34;;;;;;;2.58;0.50;;;;;;;;;;4995502;28;20120;-33
2021/12/19 13:15:04;;;;;;;1.25;0.70;;;;;;;;;;4995461;28;20046;-35
2021/12/19 13:17:39;;;;;;;1.13;0.60;;;;;;;;;;4996049;28;20035;-33
2021/12/19 13:20:08;;;;;;;1.65;1.02;;;;;;;;;;4995469;28;20269;-32
2021/12/19 13:22:38;;;;;;;0.57;0.55;;;;;;;;;;4995313;28;20096;-31
2021/12/19 13:25:08;;;;;;;0.93;0.63;;;;;;;;;;4995288;28;20030;-30
2021/12/19 13:27:36;;;;;;;1.10;0.70;;;;;;;;;;4995483;28;20030;-30
2021/12/19 13:30:05;;;;;;;1.05;0.55;;;;;;;;;;4995243;28;20041;-29
2021/12/19 13:32:34;;;;;;;1.83;0.55;;;;;;;;;;4995359;28;20026;-29
2021/12/19 13:35:01;;;;;;;1.00;0.70;;;;;;;;;;4995234;28;20022;-32
2021/12/19 13:37:31;;;;;;;1.20;0.60;;;;;;;;;;4995523;28;20109;-31
2021/12/19 13:40:13;;;;;;;0.85;0.73;;;;;;;;;;4995550;28;20438;-32
2021/12/19 13:42:41;;;;;;;0.80;0.80;;;;;;;;;;4995387;28;20406;-31
2021/12/19 13:45:24;;;;;;;1.45;0.60;;;;;;;;;;4994965;28;20031;-30
2021/12/19 13:47:50;;;;;;;1.23;0.70;;;;;;;;;;4995388;28;20151;-29
2021/12/19 13:50:17;;;;;;;0.65;0.40;;;;;;;;;;4978163;28;20023;-29
2021/12/19 13:52:43;;;;;;;1.60;0.68;;;;;;;;;;4995263;28;20109;-33
2021/12/19 13:55:10;;;;;;;4.32;0.90;;;;;;;;;;4995003;28;20109;-31
2021/12/19 13:57:37;;;;;;;1.08;0.70;;;;;;;;;;4995018;28;20412;-32
2021/12/19 14:00:05;;;;;;;1.30;0.82;;;;;;;;;;4995277;28;20459;-31
2021/12/19 14:02:40;;;;;;;1.35;0.50;;;;;;;;;;4996432;28;20030;-31
2021/12/19 14:05:25;;;;;;;1.70;0.68;;;;;;;;;;4999082;28;20458;-31
2021/12/19 14:07:51;;;;;;;0.73;0.60;;;;;;;;;;4999148;28;20533;-31
2021/12/19 14:10:21;;;;;;;0.93;0.70;;;;;;;;;;4999092;28;20081;-32
2021/12/19 14:13:13;;;;;;;0.77;0.43;;;;;;;;;;4998968;28;20043;-33
2021/12/19 14:15:49;;;;;;;0.93;0.47;;;;;;;;;;4999227;28;20489;-31
2021/12/19 14:18:46;;;;;;;0.90;0.50;;;;;;;;;;4999378;28;20030;-31
2021/12/19 14:21:32;;;;;;;1.02;0.65;;;;;;;;;;4982219;28;20065;-33
2021/12/19 14:24:13;;;;;;;0.95;0.70;;;;;;;;;;4998969;28;20026;-31
2021/12/19 14:26:39;;;;;;;;;;;;;;;;;;4999113;28;20065;-31
2021/12/19 14:29:16;;;;;;;2.72;0.50;;;;;;;;;;4998994;28;19910;-31
2021/12/19 14:32:06;;;;;;;1.95;0.93;;;;;;;;;;4998282;28;20022;-32
2021/12/19 14:34:33;;;;;;;1.13;0.52;;;;;;;;;;4988489;28;20050;-31
2021/12/19 14:37:17;;;;;;;4.55;1.88;;;;;;;;;;4998358;28;20117;-31
2021/12/19 14:39:43;;;;;;;1.73;0.88;;;;;;;;;;4998912;28;20026;-31
2021/12/19 14:42:13;;;;;;;0.82;0.70;;;;;;;;;;4998503;28;20054;-34
2021/12/19 14:44:40;;;;;;;1.13;0.50;;;;;;;;;;4981114;28;20113;-31
2021/12/19 14:47:07;;;;;;;0.75;0.65;;;;;;;;;;4998145;28;20019;-32
2021/12/19 14:49:37;;;;;;;1.00;0.50;;;;;;;;;;4998701;28;20398;-32
2021/12/19 14:52:03;;;;;;;0.75;0.65;;;;;;;;;;4998044;28;20030;-32
2021/12/19 14:54:29;;;;;;;1.63;0.70;;;;;;;;;;4997836;28;20034;-33
2021/12/19 14:56:57;;;;;;;0.65;0.52;;;;;;;;;;4998354;28;20087;-31
2021/12/19 14:59:27;;;;;;;1.20;1.05;;;;;;;;;;4998271;28;20057;-33
2021/12/19 15:01:54;;;;;;;0.90;0.67;;;;;;;;;;4998220;28;20091;-32
2021/12/19 15:04:20;;;;;;;0.80;0.75;;;;;;;;;;4997866;28;20542;-33
2021/12/19 15:06:52;;;;;;;1.27;0.80;;;;;;;;;;4997665;28;20478;-31
2021/12/19 15:09:19;;;;;;;0.60;0.30;;;;;;;;;;4998369;28;20061;-31
2021/12/19 15:11:46;;;;;;;1.70;0.75;;;;;;;;;;4997641;28;20100;-33
2021/12/19 15:14:13;;;;;;;1.88;0.77;;;;;;;;;;4997035;28;20353;-35
2021/12/19 15:16:39;;;;;;;1.02;0.60;;;;;;;;;;4997893;28;20046;-32
2021/12/19 15:19:09;;;;;;;1.02;0.43;;;;;;;;;;4997870;28;20037;-33
2021/12/19 15:21:36;;;;;;;2.03;0.65;;;;;;;;;;4997828;28;20339;-31
2021/12/19 15:24:03;;;;;;;1.48;0.60;;;;;;;;;;4997958;28;20026;-32
2021/12/19 15:26:31;;;;;;;2.17;0.88;;;;;;;;;;4997953;28;20036;-33
2021/12/19 15:28:57;;;;;;;1.10;0.80;;;;;;;;;;4997414;28;20038;-33
2021/12/19 15:31:24;;;;;;;2.60;0.60;;;;;;;;;;4997389;28;20058;-33
2021/12/19 15:33:51;;;;;;;0.40;0.40;;;;;;;;;;4997285;28;20096;-32
2021/12/19 15:36:18;;;;;;;1.00;0.88;;;;;;;;;;4997303;28;20100;-32
2021/12/19 15:38:45;;;;;;;1.30;0.63;;;;;;;;;;4997780;28;20034;-31
2021/12/19 15:41:11;;;;;;;0.90;0.57;;;;;;;;;;4997125;28;20141;-33
2021/12/19 15:43:37;;;;;;;1.80;0.93;;;;;;;;;;4997248;28;20110;-31
2021/12/19 15:46:04;;;;;;;1.10;1.00;;;;;;;;;;4997082;28;20038;-32
2021/12/19 15:48:30;;;;;;;2.03;1.88;;;;;;;;;;4997666;28;20461;-33
2021/12/19 15:50:57;;;;;;;0.98;0.60;;;;;;;;;;4997069;28;20081;-31
2021/12/19 15:53:23;;;;;;;0.70;0.70;;;;;;;;;;4996883;28;20446;-34
2021/12/19 15:55:49;;;;;;;1.45;0.85;;;;;;;;;;4979852;28;20466;-34
2021/12/19 15:58:15;;;;;;;0.63;0.60;;;;;;;;;;4996927;28;20413;-32
2021/12/19 16:00:43;;;;;;;0.68;0.55;;;;;;;;;;4996887;28;20038;-32